<?xml version="1.0" encoding="UTF-8" standalone="no" ?>
<gpx xmlns="http://www.topografix.com/GPX/1/1" xmlns:xsi="http://www.w3.org/2001/XMLSchema-instance" xsi:schemaLocation="http://www.topografix.com/GPX/1/1 http://www.topografix.com/GPX/1/1/gpx.xsd" version="1.1" creator="VisuGPX - https://www.visugpx.com">
  <metadata>
    <name>ARQUES LA SEYNE SUR MER 1497 KM</name>
    <desc><![CDATA[Rando de Arques dans le Pas de Calais jusque La Seyne sur Mer dans le Var, 1497 km]]></desc>
  </metadata>
  <trk>
    <name><![CDATA[8 - TERGNIER CESSIERES 28.5 KM]]></name>
    <extensions>
      <line xmlns="http://www.topografix.com/GPX/gpx_style/0/2">
        <color>008800</color>
        <width>4</width>
      </line>
    </extensions>
    <trkseg>
      <trkpt lat="49.6571" lon="3.2886">
        <ele>52</ele>
        <time>2021-11-02T08:52:33+01:00</time>
      </trkpt>
      <trkpt lat="49.657" lon="3.2906">
        <ele>53</ele>
        <time>2021-11-02T08:52:38+01:00</time>
      </trkpt>
      <trkpt lat="49.65839" lon="3.29495">
        <ele>56</ele>
        <time>2021-11-02T08:52:43+01:00</time>
      </trkpt>
      <trkpt lat="49.65775" lon="3.29519">
        <ele>55</ele>
        <time>2021-11-02T08:52:48+01:00</time>
      </trkpt>
      <trkpt lat="49.6576" lon="3.29772">
        <ele>54</ele>
        <time>2021-11-02T08:52:53+01:00</time>
      </trkpt>
      <trkpt lat="49.65761" lon="3.29965">
        <ele>54</ele>
        <time>2021-11-02T08:52:58+01:00</time>
      </trkpt>
      <trkpt lat="49.65646" lon="3.30167">
        <ele>55</ele>
        <time>2021-11-02T08:53:03+01:00</time>
      </trkpt>
      <trkpt lat="49.65668" lon="3.30281">
        <ele>53</ele>
        <time>2021-11-02T08:53:08+01:00</time>
      </trkpt>
      <trkpt lat="49.65375" lon="3.30367">
        <ele>50</ele>
        <time>2021-11-02T08:53:13+01:00</time>
      </trkpt>
      <trkpt lat="49.65126" lon="3.30433">
        <ele>49</ele>
        <time>2021-11-02T08:53:18+01:00</time>
      </trkpt>
      <trkpt lat="49.65064" lon="3.30472">
        <ele>49</ele>
        <time>2021-11-02T08:53:23+01:00</time>
      </trkpt>
      <trkpt lat="49.65164" lon="3.31549">
        <ele>50</ele>
        <time>2021-11-02T08:53:28+01:00</time>
      </trkpt>
      <trkpt lat="49.65225" lon="3.31525">
        <ele>48</ele>
        <time>2021-11-02T08:53:33+01:00</time>
      </trkpt>
      <trkpt lat="49.65076" lon="3.31676">
        <ele>48</ele>
        <time>2021-11-02T08:53:38+01:00</time>
      </trkpt>
      <trkpt lat="49.65104" lon="3.31699">
        <ele>48</ele>
        <time>2021-11-02T08:53:43+01:00</time>
      </trkpt>
      <trkpt lat="49.65132" lon="3.31663">
        <ele>50</ele>
        <time>2021-11-02T08:53:48+01:00</time>
      </trkpt>
      <trkpt lat="49.65149" lon="3.31688">
        <ele>50</ele>
        <time>2021-11-02T08:53:53+01:00</time>
      </trkpt>
      <trkpt lat="49.65236" lon="3.32545">
        <ele>53</ele>
        <time>2021-11-02T08:53:58+01:00</time>
      </trkpt>
      <trkpt lat="49.65201" lon="3.32639">
        <ele>52</ele>
        <time>2021-11-02T08:54:03+01:00</time>
      </trkpt>
      <trkpt lat="49.65225" lon="3.32922">
        <ele>49</ele>
        <time>2021-11-02T08:54:08+01:00</time>
      </trkpt>
      <trkpt lat="49.65282" lon="3.33081">
        <ele>47</ele>
        <time>2021-11-02T08:54:13+01:00</time>
      </trkpt>
      <trkpt lat="49.65376" lon="3.34064">
        <ele>49</ele>
        <time>2021-11-02T08:54:18+01:00</time>
      </trkpt>
      <trkpt lat="49.65514" lon="3.34641">
        <ele>49</ele>
        <time>2021-11-02T08:54:23+01:00</time>
      </trkpt>
      <trkpt lat="49.6565" lon="3.34761">
        <ele>52</ele>
        <time>2021-11-02T08:54:28+01:00</time>
      </trkpt>
      <trkpt lat="49.6617" lon="3.35122">
        <ele>50</ele>
        <time>2021-11-02T08:54:33+01:00</time>
      </trkpt>
      <trkpt lat="49.66222" lon="3.35602">
        <ele>51</ele>
        <time>2021-11-02T08:54:38+01:00</time>
      </trkpt>
      <trkpt lat="49.66375" lon="3.36304">
        <ele>51</ele>
        <time>2021-11-02T08:54:43+01:00</time>
      </trkpt>
      <trkpt lat="49.66386" lon="3.36611">
        <ele>52</ele>
        <time>2021-11-02T08:54:48+01:00</time>
      </trkpt>
      <trkpt lat="49.66357" lon="3.36718">
        <ele>52</ele>
        <time>2021-11-02T08:54:53+01:00</time>
      </trkpt>
      <trkpt lat="49.66256" lon="3.36697">
        <ele>51</ele>
        <time>2021-11-02T08:54:58+01:00</time>
      </trkpt>
      <trkpt lat="49.66188" lon="3.36851">
        <ele>50</ele>
        <time>2021-11-02T08:55:03+01:00</time>
      </trkpt>
      <trkpt lat="49.66131" lon="3.36828">
        <ele>51</ele>
        <time>2021-11-02T08:55:08+01:00</time>
      </trkpt>
      <trkpt lat="49.66017" lon="3.37098">
        <ele>52</ele>
        <time>2021-11-02T08:55:13+01:00</time>
      </trkpt>
      <trkpt lat="49.65996" lon="3.37261">
        <ele>52</ele>
        <time>2021-11-02T08:55:18+01:00</time>
      </trkpt>
      <trkpt lat="49.65951" lon="3.37272">
        <ele>52</ele>
        <time>2021-11-02T08:55:23+01:00</time>
      </trkpt>
      <trkpt lat="49.65869" lon="3.37261">
        <ele>53</ele>
        <time>2021-11-02T08:55:28+01:00</time>
      </trkpt>
      <trkpt lat="49.65571" lon="3.37579">
        <ele>50</ele>
        <time>2021-11-02T08:55:33+01:00</time>
      </trkpt>
      <trkpt lat="49.65399" lon="3.3746">
        <ele>51</ele>
        <time>2021-11-02T08:55:38+01:00</time>
      </trkpt>
      <trkpt lat="49.65309" lon="3.37262">
        <ele>49</ele>
        <time>2021-11-02T08:55:43+01:00</time>
      </trkpt>
      <trkpt lat="49.65199" lon="3.37097">
        <ele>50</ele>
        <time>2021-11-02T08:55:48+01:00</time>
      </trkpt>
      <trkpt lat="49.65155" lon="3.36964">
        <ele>48</ele>
        <time>2021-11-02T08:55:53+01:00</time>
      </trkpt>
      <trkpt lat="49.64987" lon="3.36876">
        <ele>48</ele>
        <time>2021-11-02T08:55:58+01:00</time>
      </trkpt>
      <trkpt lat="49.64829" lon="3.36706">
        <ele>50</ele>
        <time>2021-11-02T08:56:03+01:00</time>
      </trkpt>
      <trkpt lat="49.64786" lon="3.36616">
        <ele>51</ele>
        <time>2021-11-02T08:56:08+01:00</time>
      </trkpt>
      <trkpt lat="49.64655" lon="3.36419">
        <ele>52</ele>
        <time>2021-11-02T08:56:13+01:00</time>
      </trkpt>
      <trkpt lat="49.64473" lon="3.36725">
        <ele>77</ele>
        <time>2021-11-02T08:56:18+01:00</time>
      </trkpt>
      <trkpt lat="49.64218" lon="3.36913">
        <ele>83</ele>
        <time>2021-11-02T08:56:23+01:00</time>
      </trkpt>
      <trkpt lat="49.64036" lon="3.37218">
        <ele>86</ele>
        <time>2021-11-02T08:56:28+01:00</time>
      </trkpt>
      <trkpt lat="49.63929" lon="3.37188">
        <ele>85</ele>
        <time>2021-11-02T08:56:33+01:00</time>
      </trkpt>
      <trkpt lat="49.63792" lon="3.37693">
        <ele>92</ele>
        <time>2021-11-02T08:56:38+01:00</time>
      </trkpt>
      <trkpt lat="49.63732" lon="3.37687">
        <ele>92</ele>
        <time>2021-11-02T08:56:43+01:00</time>
      </trkpt>
      <trkpt lat="49.63663" lon="3.37811">
        <ele>95</ele>
        <time>2021-11-02T08:56:48+01:00</time>
      </trkpt>
      <trkpt lat="49.63576" lon="3.37858">
        <ele>97</ele>
        <time>2021-11-02T08:56:53+01:00</time>
      </trkpt>
      <trkpt lat="49.63648" lon="3.38046">
        <ele>101</ele>
        <time>2021-11-02T08:56:58+01:00</time>
      </trkpt>
      <trkpt lat="49.63351" lon="3.38568">
        <ele>99</ele>
        <time>2021-11-02T08:57:03+01:00</time>
      </trkpt>
      <trkpt lat="49.6337" lon="3.38973">
        <ele>101</ele>
        <time>2021-11-02T08:57:08+01:00</time>
      </trkpt>
      <trkpt lat="49.6315" lon="3.39302">
        <ele>102</ele>
        <time>2021-11-02T08:57:13+01:00</time>
      </trkpt>
      <trkpt lat="49.62796" lon="3.40042">
        <ele>94</ele>
        <time>2021-11-02T08:57:18+01:00</time>
      </trkpt>
      <trkpt lat="49.62754" lon="3.3993">
        <ele>92</ele>
        <time>2021-11-02T08:57:23+01:00</time>
      </trkpt>
      <trkpt lat="49.62553" lon="3.39842">
        <ele>92</ele>
        <time>2021-11-02T08:57:28+01:00</time>
      </trkpt>
      <trkpt lat="49.62576" lon="3.39666">
        <ele>94</ele>
        <time>2021-11-02T08:57:33+01:00</time>
      </trkpt>
      <trkpt lat="49.62519" lon="3.3966">
        <ele>93</ele>
        <time>2021-11-02T08:57:38+01:00</time>
      </trkpt>
      <trkpt lat="49.62519" lon="3.39589">
        <ele>94</ele>
        <time>2021-11-02T08:57:43+01:00</time>
      </trkpt>
      <trkpt lat="49.62036" lon="3.39184">
        <ele>109</ele>
        <time>2021-11-02T08:57:48+01:00</time>
      </trkpt>
      <trkpt lat="49.618" lon="3.39149">
        <ele>100</ele>
        <time>2021-11-02T08:57:53+01:00</time>
      </trkpt>
      <trkpt lat="49.61697" lon="3.39102">
        <ele>95</ele>
        <time>2021-11-02T08:57:58+01:00</time>
      </trkpt>
      <trkpt lat="49.61545" lon="3.39096">
        <ele>88</ele>
        <time>2021-11-02T08:58:03+01:00</time>
      </trkpt>
      <trkpt lat="49.61484" lon="3.38991">
        <ele>86</ele>
        <time>2021-11-02T08:58:08+01:00</time>
      </trkpt>
      <trkpt lat="49.61332" lon="3.38938">
        <ele>85</ele>
        <time>2021-11-02T08:58:13+01:00</time>
      </trkpt>
      <trkpt lat="49.61245" lon="3.3909">
        <ele>86</ele>
        <time>2021-11-02T08:58:18+01:00</time>
      </trkpt>
      <trkpt lat="49.61077" lon="3.39237">
        <ele>100</ele>
        <time>2021-11-02T08:58:23+01:00</time>
      </trkpt>
      <trkpt lat="49.61077" lon="3.39325">
        <ele>104</ele>
        <time>2021-11-02T08:58:28+01:00</time>
      </trkpt>
      <trkpt lat="49.60944" lon="3.39507">
        <ele>107</ele>
        <time>2021-11-02T08:58:33+01:00</time>
      </trkpt>
      <trkpt lat="49.6032" lon="3.3976">
        <ele>111</ele>
        <time>2021-11-02T08:58:38+01:00</time>
      </trkpt>
      <trkpt lat="49.59772" lon="3.39924">
        <ele>135</ele>
        <time>2021-11-02T08:58:43+01:00</time>
      </trkpt>
      <trkpt lat="49.59605" lon="3.39871">
        <ele>153</ele>
        <time>2021-11-02T08:58:48+01:00</time>
      </trkpt>
      <trkpt lat="49.58798" lon="3.4057">
        <ele>203</ele>
        <time>2021-11-02T08:58:53+01:00</time>
      </trkpt>
      <trkpt lat="49.58714" lon="3.41204">
        <ele>184</ele>
        <time>2021-11-02T08:58:58+01:00</time>
      </trkpt>
      <trkpt lat="49.58581" lon="3.41521">
        <ele>167</ele>
        <time>2021-11-02T08:59:03+01:00</time>
      </trkpt>
      <trkpt lat="49.58543" lon="3.41697">
        <ele>154</ele>
        <time>2021-11-02T08:59:08+01:00</time>
      </trkpt>
      <trkpt lat="49.5844" lon="3.41773">
        <ele>162</ele>
        <time>2021-11-02T08:59:13+01:00</time>
      </trkpt>
      <trkpt lat="49.58364" lon="3.41891">
        <ele>155</ele>
        <time>2021-11-02T08:59:18+01:00</time>
      </trkpt>
      <trkpt lat="49.58395" lon="3.41973">
        <ele>152</ele>
        <time>2021-11-02T08:59:23+01:00</time>
      </trkpt>
      <trkpt lat="49.58634" lon="3.41955">
        <ele>134</ele>
        <time>2021-11-02T08:59:28+01:00</time>
      </trkpt>
      <trkpt lat="49.58878" lon="3.42372">
        <ele>126</ele>
        <time>2021-11-02T08:59:33+01:00</time>
      </trkpt>
      <trkpt lat="49.58848" lon="3.42548">
        <ele>152</ele>
        <time>2021-11-02T08:59:38+01:00</time>
      </trkpt>
      <trkpt lat="49.5895" lon="3.42701">
        <ele>158</ele>
        <time>2021-11-02T08:59:43+01:00</time>
      </trkpt>
      <trkpt lat="49.58905" lon="3.42783">
        <ele>172</ele>
        <time>2021-11-02T08:59:48+01:00</time>
      </trkpt>
      <trkpt lat="49.5879" lon="3.42812">
        <ele>183</ele>
        <time>2021-11-02T08:59:53+01:00</time>
      </trkpt>
      <trkpt lat="49.5873" lon="3.43006">
        <ele>174</ele>
        <time>2021-11-02T08:59:58+01:00</time>
      </trkpt>
      <trkpt lat="49.58733" lon="3.43259">
        <ele>147</ele>
        <time>2021-11-02T09:00:03+01:00</time>
      </trkpt>
      <trkpt lat="49.58513" lon="3.43282">
        <ele>145</ele>
        <time>2021-11-02T09:00:08+01:00</time>
      </trkpt>
      <trkpt lat="49.58322" lon="3.43423">
        <ele>154</ele>
        <time>2021-11-02T09:00:13+01:00</time>
      </trkpt>
      <trkpt lat="49.58391" lon="3.43529">
        <ele>145</ele>
        <time>2021-11-02T09:00:18+01:00</time>
      </trkpt>
      <trkpt lat="49.58311" lon="3.43687">
        <ele>151</ele>
        <time>2021-11-02T09:00:23+01:00</time>
      </trkpt>
      <trkpt lat="49.58022" lon="3.43429">
        <ele>197</ele>
        <time>2021-11-02T09:00:28+01:00</time>
      </trkpt>
      <trkpt lat="49.57812" lon="3.4384">
        <ele>190</ele>
        <time>2021-11-02T09:00:33+01:00</time>
      </trkpt>
      <trkpt lat="49.579" lon="3.4401">
        <ele>187</ele>
        <time>2021-11-02T09:00:38+01:00</time>
      </trkpt>
      <trkpt lat="49.5785" lon="3.44086">
        <ele>196</ele>
        <time>2021-11-02T09:00:43+01:00</time>
      </trkpt>
      <trkpt lat="49.57759" lon="3.4401">
        <ele>200</ele>
        <time>2021-11-02T09:00:48+01:00</time>
      </trkpt>
      <trkpt lat="49.57572" lon="3.44139">
        <ele>200</ele>
        <time>2021-11-02T09:00:53+01:00</time>
      </trkpt>
      <trkpt lat="49.57424" lon="3.45055">
        <ele>200</ele>
        <time>2021-11-02T09:00:58+01:00</time>
      </trkpt>
      <trkpt lat="49.57306" lon="3.45161">
        <ele>193</ele>
        <time>2021-11-02T09:01:03+01:00</time>
      </trkpt>
      <trkpt lat="49.57397" lon="3.45401">
        <ele>187</ele>
        <time>2021-11-02T09:01:08+01:00</time>
      </trkpt>
      <trkpt lat="49.57302" lon="3.45566">
        <ele>183</ele>
        <time>2021-11-02T09:01:13+01:00</time>
      </trkpt>
      <trkpt lat="49.57158" lon="3.45583">
        <ele>175</ele>
        <time>2021-11-02T09:01:18+01:00</time>
      </trkpt>
      <trkpt lat="49.57059" lon="3.45701">
        <ele>170</ele>
        <time>2021-11-02T09:01:23+01:00</time>
      </trkpt>
      <trkpt lat="49.57055" lon="3.46006">
        <ele>177</ele>
        <time>2021-11-02T09:01:28+01:00</time>
      </trkpt>
      <trkpt lat="49.5688" lon="3.46188">
        <ele>181</ele>
        <time>2021-11-02T09:01:33+01:00</time>
      </trkpt>
      <trkpt lat="49.56773" lon="3.46399">
        <ele>192</ele>
        <time>2021-11-02T09:01:38+01:00</time>
      </trkpt>
      <trkpt lat="49.56564" lon="3.46587">
        <ele>193</ele>
        <time>2021-11-02T09:01:43+01:00</time>
      </trkpt>
      <trkpt lat="49.56548" lon="3.46746">
        <ele>191</ele>
        <time>2021-11-02T09:01:48+01:00</time>
      </trkpt>
      <trkpt lat="49.56697" lon="3.4728">
        <ele>184</ele>
        <time>2021-11-02T09:01:53+01:00</time>
      </trkpt>
      <trkpt lat="49.56598" lon="3.4762">
        <ele>187</ele>
        <time>2021-11-02T09:01:58+01:00</time>
      </trkpt>
      <trkpt lat="49.56434" lon="3.48002">
        <ele>181</ele>
        <time>2021-11-02T09:02:03+01:00</time>
      </trkpt>
      <trkpt lat="49.56289" lon="3.4843">
        <ele>146</ele>
        <time>2021-11-02T09:02:08+01:00</time>
      </trkpt>
      <trkpt lat="49.56297" lon="3.48554">
        <ele>129</ele>
        <time>2021-11-02T09:02:13+01:00</time>
      </trkpt>
      <trkpt lat="49.55981" lon="3.49064">
        <ele>110</ele>
        <time>2021-11-02T09:02:18+01:00</time>
      </trkpt>
      <trkpt lat="49.55753" lon="3.49393">
        <ele>106</ele>
        <time>2021-11-02T09:02:23+01:00</time>
      </trkpt>
      <trkpt lat="49.55863" lon="3.49528">
        <ele>105</ele>
        <time>2021-11-02T09:02:28+01:00</time>
      </trkpt>
      <trkpt lat="49.5592" lon="3.49634">
        <ele>109</ele>
        <time>2021-11-02T09:02:33+01:00</time>
      </trkpt>
    </trkseg>
  </trk>
</gpx>